sensor_id;sensor_type;location;lat;lon;timestamp;temperature;humidity
25360;DHT22;13311;51.386;0.016;2023-10-08T00:01:12;22.10;87.50
25360;DHT22;13311;51.386;0.016;2023-10-08T00:06:15;21.90;87.70
25360;DHT22;13311;51.386;0.016;2023-10-08T00:11:17;21.90;87.80
25360;DHT22;13311;51.386;0.016;2023-10-08T00:16:18;21.80;87.60
25360;DHT22;13311;51.386;0.016;2023-10-08T00:21:22;21.80;87.80
25360;DHT22;13311;51.386;0.016;2023-10-08T00:26:27;21.70;87.70
25360;DHT22;13311;51.386;0.016;2023-10-08T00:31:30;21.70;87.90
25360;DHT22;13311;51.386;0.016;2023-10-08T00:36:32;21.60;88.10
25360;DHT22;13311;51.386;0.016;2023-10-08T00:41:34;21.60;88.20
25360;DHT22;13311;51.386;0.016;2023-10-08T00:46:35;21.40;88.50
25360;DHT22;13311;51.386;0.016;2023-10-08T00:51:42;21.30;89.00
25360;DHT22;13311;51.386;0.016;2023-10-08T00:56:46;21.20;89.50
25360;DHT22;13311;51.386;0.016;2023-10-08T01:01:56;21.10;89.80
25360;DHT22;13311;51.386;0.016;2023-10-08T01:07:08;21.00;90.00
25360;DHT22;13311;51.386;0.016;2023-10-08T01:12:18;20.90;90.20
25360;DHT22;13311;51.386;0.016;2023-10-08T01:17:26;20.80;90.40
25360;DHT22;13311;51.386;0.016;2023-10-08T01:22:32;20.70;90.50
25360;DHT22;13311;51.386;0.016;2023-10-08T01:27:33;20.70;90.60
25360;DHT22;13311;51.386;0.016;2023-10-08T01:32:38;20.60;90.80
25360;DHT22;13311;51.386;0.016;2023-10-08T01:37:38;20.50;90.90
25360;DHT22;13311;51.386;0.016;2023-10-08T01:42:40;20.50;91.10
25360;DHT22;13311;51.386;0.016;2023-10-08T01:47:41;20.50;91.10
25360;DHT22;13311;51.386;0.016;2023-10-08T01:52:43;20.40;91.20
25360;DHT22;13311;51.386;0.016;2023-10-08T01:57:49;20.40;91.30
25360;DHT22;13311;51.386;0.016;2023-10-08T02:02:54;20.30;91.40
25360;DHT22;13311;51.386;0.016;2023-10-08T02:07:54;20.30;91.50
25360;DHT22;13311;51.386;0.016;2023-10-08T02:12:58;20.20;91.60
25360;DHT22;13311;51.386;0.016;2023-10-08T02:18:00;20.20;91.60
25360;DHT22;13311;51.386;0.016;2023-10-08T02:23:00;20.20;91.60
25360;DHT22;13311;51.386;0.016;2023-10-08T02:28:03;20.10;91.60
25360;DHT22;13311;51.386;0.016;2023-10-08T02:33:04;20.10;91.60
25360;DHT22;13311;51.386;0.016;2023-10-08T02:38:17;20.10;91.60
25360;DHT22;13311;51.386;0.016;2023-10-08T02:43:18;20.10;91.50
25360;DHT22;13311;51.386;0.016;2023-10-08T02:48:20;20.10;91.60
25360;DHT22;13311;51.386;0.016;2023-10-08T02:53:21;20.10;91.60
25360;DHT22;13311;51.386;0.016;2023-10-08T02:58:26;20.00;91.60
25360;DHT22;13311;51.386;0.016;2023-10-08T03:03:28;19.90;91.60
25360;DHT22;13311;51.386;0.016;2023-10-08T03:08:29;19.90;91.50
25360;DHT22;13311;51.386;0.016;2023-10-08T03:13:31;19.90;91.60
25360;DHT22;13311;51.386;0.016;2023-10-08T03:18:32;19.80;91.70
25360;DHT22;13311;51.386;0.016;2023-10-08T03:23:50;19.70;91.80
25360;DHT22;13311;51.386;0.016;2023-10-08T03:28:51;19.70;91.70
25360;DHT22;13311;51.386;0.016;2023-10-08T03:33:58;19.60;92.10
25360;DHT22;13311;51.386;0.016;2023-10-08T03:38:59;19.50;92.10
25360;DHT22;13311;51.386;0.016;2023-10-08T03:44:09;19.40;92.20
25360;DHT22;13311;51.386;0.016;2023-10-08T03:49:13;19.30;92.30
25360;DHT22;13311;51.386;0.016;2023-10-08T03:54:23;19.20;92.20
25360;DHT22;13311;51.386;0.016;2023-10-08T03:59:30;19.10;92.40
25360;DHT22;13311;51.386;0.016;2023-10-08T04:04:35;19.00;92.30
25360;DHT22;13311;51.386;0.016;2023-10-08T04:09:58;19.00;92.40
25360;DHT22;13311;51.386;0.016;2023-10-08T04:15:20;18.90;92.50
25360;DHT22;13311;51.386;0.016;2023-10-08T04:20:21;18.90;92.60
25360;DHT22;13311;51.386;0.016;2023-10-08T04:25:33;18.80;92.70
25360;DHT22;13311;51.386;0.016;2023-10-08T04:30:35;18.70;92.60
25360;DHT22;13311;51.386;0.016;2023-10-08T04:35:37;18.60;92.80
25360;DHT22;13311;51.386;0.016;2023-10-08T04:40:49;18.50;92.80
25360;DHT22;13311;51.386;0.016;2023-10-08T04:46:00;18.50;92.80
25360;DHT22;13311;51.386;0.016;2023-10-08T04:51:19;18.40;93.00
25360;DHT22;13311;51.386;0.016;2023-10-08T04:56:23;18.30;93.20
25360;DHT22;13311;51.386;0.016;2023-10-08T05:01:24;18.30;93.30
25360;DHT22;13311;51.386;0.016;2023-10-08T05:06:40;18.30;93.20
25360;DHT22;13311;51.386;0.016;2023-10-08T05:11:52;18.30;93.20
25360;DHT22;13311;51.386;0.016;2023-10-08T05:16:55;18.30;93.20
25360;DHT22;13311;51.386;0.016;2023-10-08T05:22:11;18.30;93.10
25360;DHT22;13311;51.386;0.016;2023-10-08T05:27:18;18.30;93.20
25360;DHT22;13311;51.386;0.016;2023-10-08T05:32:37;18.30;92.90
25360;DHT22;13311;51.386;0.016;2023-10-08T05:37:44;18.20;93.10
25360;DHT22;13311;51.386;0.016;2023-10-08T05:42:52;18.10;93.10
25360;DHT22;13311;51.386;0.016;2023-10-08T05:48:01;18.10;93.20
25360;DHT22;13311;51.386;0.016;2023-10-08T05:53:15;18.00;93.30
25360;DHT22;13311;51.386;0.016;2023-10-08T05:58:30;18.00;93.30
25360;DHT22;13311;51.386;0.016;2023-10-08T06:03:46;18.00;93.40
25360;DHT22;13311;51.386;0.016;2023-10-08T06:09:00;17.90;93.20
25360;DHT22;13311;51.386;0.016;2023-10-08T06:14:22;17.80;93.30
25360;DHT22;13311;51.386;0.016;2023-10-08T06:19:51;17.70;93.70
25360;DHT22;13311;51.386;0.016;2023-10-08T06:24:53;17.70;94.00
25360;DHT22;13311;51.386;0.016;2023-10-08T06:30:13;17.70;94.00
25360;DHT22;13311;51.386;0.016;2023-10-08T06:35:17;17.70;94.00
25360;DHT22;13311;51.386;0.016;2023-10-08T06:40:18;17.60;94.30
25360;DHT22;13311;51.386;0.016;2023-10-08T06:45:39;17.60;94.50
25360;DHT22;13311;51.386;0.016;2023-10-08T06:50:40;17.70;94.50
25360;DHT22;13311;51.386;0.016;2023-10-08T06:55:41;17.70;94.30
25360;DHT22;13311;51.386;0.016;2023-10-08T07:00:42;17.80;94.30
25360;DHT22;13311;51.386;0.016;2023-10-08T07:05:50;17.90;94.10
25360;DHT22;13311;51.386;0.016;2023-10-08T07:10:54;18.00;94.10
25360;DHT22;13311;51.386;0.016;2023-10-08T07:15:57;18.10;94.00
25360;DHT22;13311;51.386;0.016;2023-10-08T07:20:57;18.40;93.80
25360;DHT22;13311;51.386;0.016;2023-10-08T07:26:03;18.40;93.60
25360;DHT22;13311;51.386;0.016;2023-10-08T07:31:14;18.50;93.60
25360;DHT22;13311;51.386;0.016;2023-10-08T07:36:16;18.70;93.40
25360;DHT22;13311;51.386;0.016;2023-10-08T07:41:19;18.90;93.20
25360;DHT22;13311;51.386;0.016;2023-10-08T07:46:26;19.00;93.10
25360;DHT22;13311;51.386;0.016;2023-10-08T07:51:27;19.40;92.90
25360;DHT22;13311;51.386;0.016;2023-10-08T07:56:28;19.70;92.60
25360;DHT22;13311;51.386;0.016;2023-10-08T08:01:30;20.00;92.30
25360;DHT22;13311;51.386;0.016;2023-10-08T08:06:34;20.30;92.10
25360;DHT22;13311;51.386;0.016;2023-10-08T08:11:34;20.40;91.60
25360;DHT22;13311;51.386;0.016;2023-10-08T08:16:37;20.60;91.50
25360;DHT22;13311;51.386;0.016;2023-10-08T08:21:38;20.80;90.60
25360;DHT22;13311;51.386;0.016;2023-10-08T08:26:45;20.90;90.70
25360;DHT22;13311;51.386;0.016;2023-10-08T08:32:01;21.10;90.80
25360;DHT22;13311;51.386;0.016;2023-10-08T08:37:04;21.30;90.40
25360;DHT22;13311;51.386;0.016;2023-10-08T08:42:05;21.70;86.90
25360;DHT22;13311;51.386;0.016;2023-10-08T08:47:06;22.00;86.90
25360;DHT22;13311;51.386;0.016;2023-10-08T08:52:08;22.40;85.80
25360;DHT22;13311;51.386;0.016;2023-10-08T08:57:10;22.80;84.10
25360;DHT22;13311;51.386;0.016;2023-10-08T09:02:15;23.10;84.50
25360;DHT22;13311;51.386;0.016;2023-10-08T09:07:20;23.50;82.10
25360;DHT22;13311;51.386;0.016;2023-10-08T09:12:21;23.70;81.70
25360;DHT22;13311;51.386;0.016;2023-10-08T09:17:25;24.00;81.00
25360;DHT22;13311;51.386;0.016;2023-10-08T09:22:26;24.40;79.80
25360;DHT22;13311;51.386;0.016;2023-10-08T09:27:27;24.40;79.30
25360;DHT22;13311;51.386;0.016;2023-10-08T09:32:30;24.60;79.30
25360;DHT22;13311;51.386;0.016;2023-10-08T09:37:31;24.80;77.90
25360;DHT22;13311;51.386;0.016;2023-10-08T09:42:33;24.70;78.00
25360;DHT22;13311;51.386;0.016;2023-10-08T09:47:38;25.00;77.80
25360;DHT22;13311;51.386;0.016;2023-10-08T09:53:05;25.10;75.40
25360;DHT22;13311;51.386;0.016;2023-10-08T09:58:12;25.40;76.00
25360;DHT22;13311;51.386;0.016;2023-10-08T10:03:15;25.70;76.00
25360;DHT22;13311;51.386;0.016;2023-10-08T10:08:15;26.00;75.10
25360;DHT22;13311;51.386;0.016;2023-10-08T10:13:17;26.30;75.40
25360;DHT22;13311;51.386;0.016;2023-10-08T10:28:37;26.30;76.80
25360;DHT22;13311;51.386;0.016;2023-10-08T10:33:38;26.10;77.70
25360;DHT22;13311;51.386;0.016;2023-10-08T10:38:40;26.20;77.90
25360;DHT22;13311;51.386;0.016;2023-10-08T10:43:43;26.30;77.90
25360;DHT22;13311;51.386;0.016;2023-10-08T10:48:53;26.60;77.30
25360;DHT22;13311;51.386;0.016;2023-10-08T10:54:12;26.60;77.40
25360;DHT22;13311;51.386;0.016;2023-10-08T10:59:20;26.90;76.30
25360;DHT22;13311;51.386;0.016;2023-10-08T11:04:27;26.90;76.20
25360;DHT22;13311;51.386;0.016;2023-10-08T11:09:31;27.10;76.10
25360;DHT22;13311;51.386;0.016;2023-10-08T11:14:40;27.20;74.90
25360;DHT22;13311;51.386;0.016;2023-10-08T11:19:46;27.50;74.80
25360;DHT22;13311;51.386;0.016;2023-10-08T11:24:47;27.60;75.00
25360;DHT22;13311;51.386;0.016;2023-10-08T11:29:49;27.80;69.50
25360;DHT22;13311;51.386;0.016;2023-10-08T11:35:00;28.10;68.50
25360;DHT22;13311;51.386;0.016;2023-10-08T11:40:02;28.20;73.90
25360;DHT22;13311;51.386;0.016;2023-10-08T11:45:17;28.30;72.60
25360;DHT22;13311;51.386;0.016;2023-10-08T11:50:18;28.40;74.20
25360;DHT22;13311;51.386;0.016;2023-10-08T11:55:19;28.30;72.70
25360;DHT22;13311;51.386;0.016;2023-10-08T12:00:20;28.40;71.00
25360;DHT22;13311;51.386;0.016;2023-10-08T12:05:25;28.50;73.40
25360;DHT22;13311;51.386;0.016;2023-10-08T12:10:26;28.60;72.80
25360;DHT22;13311;51.386;0.016;2023-10-08T12:15:26;28.60;72.60
25360;DHT22;13311;51.386;0.016;2023-10-08T12:20:38;28.60;70.50
25360;DHT22;13311;51.386;0.016;2023-10-08T12:25:39;28.60;73.10
25360;DHT22;13311;51.386;0.016;2023-10-08T12:30:39;28.60;73.10
25360;DHT22;13311;51.386;0.016;2023-10-08T12:35:43;28.60;71.70
25360;DHT22;13311;51.386;0.016;2023-10-08T12:40:44;28.70;71.70
25360;DHT22;13311;51.386;0.016;2023-10-08T12:45:49;28.60;71.00
25360;DHT22;13311;51.386;0.016;2023-10-08T12:50:54;28.60;72.00
25360;DHT22;13311;51.386;0.016;2023-10-08T12:55:58;28.60;73.60
25360;DHT22;13311;51.386;0.016;2023-10-08T13:01:01;28.60;70.00
25360;DHT22;13311;51.386;0.016;2023-10-08T13:06:04;28.80;72.60
25360;DHT22;13311;51.386;0.016;2023-10-08T13:11:05;28.90;72.50
25360;DHT22;13311;51.386;0.016;2023-10-08T13:16:06;28.90;72.30
25360;DHT22;13311;51.386;0.016;2023-10-08T13:21:08;28.90;69.20
25360;DHT22;13311;51.386;0.016;2023-10-08T13:26:10;28.90;69.40
25360;DHT22;13311;51.386;0.016;2023-10-08T13:31:17;28.90;68.40
25360;DHT22;13311;51.386;0.016;2023-10-08T13:36:19;28.80;65.90
25360;DHT22;13311;51.386;0.016;2023-10-08T13:41:20;28.90;70.60
25360;DHT22;13311;51.386;0.016;2023-10-08T13:46:21;28.90;69.00
25360;DHT22;13311;51.386;0.016;2023-10-08T13:51:25;28.90;64.90
25360;DHT22;13311;51.386;0.016;2023-10-08T13:56:27;29.00;69.10
25360;DHT22;13311;51.386;0.016;2023-10-08T14:01:31;29.10;71.20
25360;DHT22;13311;51.386;0.016;2023-10-08T14:06:36;29.10;67.30
25360;DHT22;13311;51.386;0.016;2023-10-08T14:11:37;29.00;68.00
25360;DHT22;13311;51.386;0.016;2023-10-08T14:16:39;28.70;65.20
25360;DHT22;13311;51.386;0.016;2023-10-08T14:21:43;28.70;66.30
25360;DHT22;13311;51.386;0.016;2023-10-08T14:26:53;28.50;65.20
25360;DHT22;13311;51.386;0.016;2023-10-08T14:31:57;28.10;67.10
25360;DHT22;13311;51.386;0.016;2023-10-08T14:37:00;28.10;66.60
25360;DHT22;13311;51.386;0.016;2023-10-08T14:42:19;28.10;67.20
25360;DHT22;13311;51.386;0.016;2023-10-08T14:47:38;28.10;70.50
25360;DHT22;13311;51.386;0.016;2023-10-08T14:52:39;27.90;67.30
25360;DHT22;13311;51.386;0.016;2023-10-08T14:57:40;27.80;67.30
25360;DHT22;13311;51.386;0.016;2023-10-08T15:02:42;27.60;65.50
25360;DHT22;13311;51.386;0.016;2023-10-08T15:07:43;27.50;68.10
25360;DHT22;13311;51.386;0.016;2023-10-08T15:12:43;27.50;71.50
25360;DHT22;13311;51.386;0.016;2023-10-08T15:17:45;27.40;71.30
25360;DHT22;13311;51.386;0.016;2023-10-08T15:22:48;27.40;68.70
25360;DHT22;13311;51.386;0.016;2023-10-08T15:27:49;27.30;67.50
25360;DHT22;13311;51.386;0.016;2023-10-08T15:32:51;27.40;68.80
25360;DHT22;13311;51.386;0.016;2023-10-08T15:37:53;27.40;69.10
25360;DHT22;13311;51.386;0.016;2023-10-08T15:42:55;27.30;70.20
25360;DHT22;13311;51.386;0.016;2023-10-08T15:47:58;27.20;68.20
25360;DHT22;13311;51.386;0.016;2023-10-08T15:52:58;27.20;69.70
25360;DHT22;13311;51.386;0.016;2023-10-08T15:57:59;27.10;69.90
25360;DHT22;13311;51.386;0.016;2023-10-08T16:03:00;27.10;70.90
25360;DHT22;13311;51.386;0.016;2023-10-08T16:08:01;27.10;69.60
25360;DHT22;13311;51.386;0.016;2023-10-08T16:13:01;27.00;70.80
25360;DHT22;13311;51.386;0.016;2023-10-08T16:18:04;26.90;71.60
25360;DHT22;13311;51.386;0.016;2023-10-08T16:23:05;27.00;72.90
25360;DHT22;13311;51.386;0.016;2023-10-08T16:28:07;26.90;71.00
25360;DHT22;13311;51.386;0.016;2023-10-08T16:33:08;26.80;71.60
25360;DHT22;13311;51.386;0.016;2023-10-08T16:38:09;26.50;69.50
25360;DHT22;13311;51.386;0.016;2023-10-08T16:43:12;26.40;70.30
25360;DHT22;13311;51.386;0.016;2023-10-08T16:48:15;26.40;70.80
25360;DHT22;13311;51.386;0.016;2023-10-08T16:53:16;26.30;70.50
25360;DHT22;13311;51.386;0.016;2023-10-08T16:58:17;26.20;71.50
25360;DHT22;13311;51.386;0.016;2023-10-08T17:03:19;26.20;71.80
25360;DHT22;13311;51.386;0.016;2023-10-08T17:08:22;25.90;72.40
25360;DHT22;13311;51.386;0.016;2023-10-08T17:13:22;25.70;72.70
25360;DHT22;13311;51.386;0.016;2023-10-08T17:18:23;25.50;73.30
25360;DHT22;13311;51.386;0.016;2023-10-08T17:23:26;25.30;73.50
25360;DHT22;13311;51.386;0.016;2023-10-08T17:28:27;25.20;74.10
25360;DHT22;13311;51.386;0.016;2023-10-08T17:33:28;25.10;74.80
25360;DHT22;13311;51.386;0.016;2023-10-08T17:38:29;25.00;75.10
25360;DHT22;13311;51.386;0.016;2023-10-08T17:43:31;24.90;75.60
25360;DHT22;13311;51.386;0.016;2023-10-08T17:48:32;24.80;76.70
25360;DHT22;13311;51.386;0.016;2023-10-08T17:53:36;24.60;76.40
25360;DHT22;13311;51.386;0.016;2023-10-08T17:58:37;24.50;77.00
25360;DHT22;13311;51.386;0.016;2023-10-08T18:03:38;24.30;77.50
25360;DHT22;13311;51.386;0.016;2023-10-08T18:08:39;24.20;78.00
25360;DHT22;13311;51.386;0.016;2023-10-08T18:13:41;24.10;78.20
25360;DHT22;13311;51.386;0.016;2023-10-08T18:18:42;24.10;78.40
25360;DHT22;13311;51.386;0.016;2023-10-08T18:23:45;24.00;78.30
25360;DHT22;13311;51.386;0.016;2023-10-08T18:28:47;23.90;79.00
25360;DHT22;13311;51.386;0.016;2023-10-08T18:33:49;23.70;79.60
25360;DHT22;13311;51.386;0.016;2023-10-08T18:38:50;23.70;79.80
25360;DHT22;13311;51.386;0.016;2023-10-08T18:43:52;23.70;80.00
25360;DHT22;13311;51.386;0.016;2023-10-08T18:48:56;23.60;80.30
25360;DHT22;13311;51.386;0.016;2023-10-08T18:53:56;23.50;80.70
25360;DHT22;13311;51.386;0.016;2023-10-08T18:59:05;23.40;81.30
25360;DHT22;13311;51.386;0.016;2023-10-08T19:04:09;23.30;81.90
25360;DHT22;13311;51.386;0.016;2023-10-08T19:09:10;23.30;82.00
25360;DHT22;13311;51.386;0.016;2023-10-08T19:14:12;23.30;82.10
25360;DHT22;13311;51.386;0.016;2023-10-08T19:19:14;23.20;82.30
25360;DHT22;13311;51.386;0.016;2023-10-08T19:24:15;23.20;82.40
25360;DHT22;13311;51.386;0.016;2023-10-08T19:29:17;23.20;82.60
25360;DHT22;13311;51.386;0.016;2023-10-08T19:34:18;23.10;82.60
25360;DHT22;13311;51.386;0.016;2023-10-08T19:39:19;23.10;83.60
25360;DHT22;13311;51.386;0.016;2023-10-08T19:44:19;23.00;83.10
25360;DHT22;13311;51.386;0.016;2023-10-08T19:49:20;22.90;83.50
25360;DHT22;13311;51.386;0.016;2023-10-08T19:54:22;22.90;83.80
25360;DHT22;13311;51.386;0.016;2023-10-08T19:59:22;22.70;84.10
25360;DHT22;13311;51.386;0.016;2023-10-08T20:04:24;22.60;84.50
25360;DHT22;13311;51.386;0.016;2023-10-08T20:09:25;22.50;85.10
25360;DHT22;13311;51.386;0.016;2023-10-08T20:14:27;22.50;84.90
25360;DHT22;13311;51.386;0.016;2023-10-08T20:19:28;22.40;85.00
25360;DHT22;13311;51.386;0.016;2023-10-08T20:24:31;22.50;85.00
25360;DHT22;13311;51.386;0.016;2023-10-08T20:29:32;22.40;85.00
25360;DHT22;13311;51.386;0.016;2023-10-08T20:34:33;22.40;85.10
25360;DHT22;13311;51.386;0.016;2023-10-08T20:39:34;22.30;85.30
25360;DHT22;13311;51.386;0.016;2023-10-08T20:44:39;22.10;85.70
25360;DHT22;13311;51.386;0.016;2023-10-08T20:49:40;21.90;86.00
25360;DHT22;13311;51.386;0.016;2023-10-08T20:54:42;22.00;85.90
25360;DHT22;13311;51.386;0.016;2023-10-08T20:59:43;21.90;85.60
25360;DHT22;13311;51.386;0.016;2023-10-08T21:04:44;21.90;85.70
25360;DHT22;13311;51.386;0.016;2023-10-08T21:09:45;21.80;85.90
25360;DHT22;13311;51.386;0.016;2023-10-08T21:14:45;21.80;85.40
25360;DHT22;13311;51.386;0.016;2023-10-08T21:19:46;21.80;85.60
25360;DHT22;13311;51.386;0.016;2023-10-08T21:24:47;21.80;85.60
25360;DHT22;13311;51.386;0.016;2023-10-08T21:29:48;21.70;85.70
25360;DHT22;13311;51.386;0.016;2023-10-08T21:34:49;21.60;85.80
25360;DHT22;13311;51.386;0.016;2023-10-08T21:39:50;21.70;85.90
25360;DHT22;13311;51.386;0.016;2023-10-08T21:44:51;21.70;85.90
25360;DHT22;13311;51.386;0.016;2023-10-08T21:49:52;21.60;85.90
25360;DHT22;13311;51.386;0.016;2023-10-08T21:54:54;21.60;86.00
25360;DHT22;13311;51.386;0.016;2023-10-08T21:59:55;21.40;86.20
25360;DHT22;13311;51.386;0.016;2023-10-08T22:04:56;21.40;86.70
25360;DHT22;13311;51.386;0.016;2023-10-08T22:09:58;21.30;86.90
25360;DHT22;13311;51.386;0.016;2023-10-08T22:14:59;21.30;87.00
25360;DHT22;13311;51.386;0.016;2023-10-08T22:20:17;21.30;87.20
25360;DHT22;13311;51.386;0.016;2023-10-08T22:25:36;21.30;87.20
25360;DHT22;13311;51.386;0.016;2023-10-08T22:30:47;21.30;87.00
25360;DHT22;13311;51.386;0.016;2023-10-08T22:35:52;21.30;87.10
25360;DHT22;13311;51.386;0.016;2023-10-08T22:40:54;21.40;86.70
25360;DHT22;13311;51.386;0.016;2023-10-08T22:45:58;21.40;86.60
25360;DHT22;13311;51.386;0.016;2023-10-08T22:50:58;21.50;86.60
25360;DHT22;13311;51.386;0.016;2023-10-08T22:56:03;21.50;86.40
25360;DHT22;13311;51.386;0.016;2023-10-08T23:01:15;21.50;86.50
25360;DHT22;13311;51.386;0.016;2023-10-08T23:06:20;21.40;86.80
25360;DHT22;13311;51.386;0.016;2023-10-08T23:11:23;21.40;87.00
25360;DHT22;13311;51.386;0.016;2023-10-08T23:16:24;21.30;87.00
25360;DHT22;13311;51.386;0.016;2023-10-08T23:21:29;21.10;87.50
25360;DHT22;13311;51.386;0.016;2023-10-08T23:26:31;21.00;87.80
25360;DHT22;13311;51.386;0.016;2023-10-08T23:31:32;21.00;88.00
25360;DHT22;13311;51.386;0.016;2023-10-08T23:36:33;20.90;88.50
25360;DHT22;13311;51.386;0.016;2023-10-08T23:41:34;20.80;88.80
25360;DHT22;13311;51.386;0.016;2023-10-08T23:46:47;20.70;88.90
25360;DHT22;13311;51.386;0.016;2023-10-08T23:52:01;20.60;89.00
25360;DHT22;13311;51.386;0.016;2023-10-08T23:57:04;20.50;89.40
